createdAt,value
2017-03-08T00:00:39.101Z,21.86
2017-03-08T00:01:52.654Z,21.79
2017-03-08T00:03:05.992Z,21.77
2017-03-08T00:04:33.277Z,21.81
2017-03-08T00:05:46.655Z,21.79
2017-03-08T00:06:59.992Z,21.79
2017-03-08T00:08:12.233Z,21.86
2017-03-08T00:09:25.579Z,21.85
2017-03-08T00:10:38.344Z,21.79
2017-03-08T00:11:51.703Z,21.68
2017-03-08T00:13:19.019Z,21.73
2017-03-08T00:14:32.386Z,21.61
2017-03-08T00:15:45.727Z,21.66
2017-03-08T00:16:59.035Z,21.61
2017-03-08T00:18:12.546Z,21.55
2017-03-08T00:19:25.865Z,21.61
2017-03-08T00:20:39.205Z,21.53
2017-03-08T00:23:20.065Z,21.52
2017-03-08T00:24:32.838Z,21.55
2017-03-08T00:25:46.171Z,21.45
2017-03-08T00:26:59.519Z,21.46
2017-03-08T00:28:12.825Z,21.56
2017-03-08T00:29:26.157Z,21.56
2017-03-08T00:30:39.499Z,21.63
2017-03-08T00:32:06.772Z,21.59
2017-03-08T00:33:19.515Z,21.58
2017-03-08T00:34:32.847Z,21.49
2017-03-08T00:35:45.660Z,21.48
2017-03-08T00:36:58.995Z,21.42
2017-03-08T00:38:12.332Z,21.38
2017-03-08T00:39:25.669Z,21.48
2017-03-08T00:40:38.994Z,21.36
2017-03-08T00:41:52.360Z,21.37
2017-03-08T00:43:05.688Z,21.46
2017-03-08T00:44:19.234Z,21.45
2017-03-08T00:45:31.988Z,21.53
2017-03-08T00:46:45.313Z,21.58
2017-03-08T00:47:58.061Z,21.51
2017-03-08T00:49:10.804Z,21.52
2017-03-08T00:50:24.316Z,21.59
2017-03-08T00:51:37.668Z,21.58
2017-03-08T00:52:51.034Z,21.64
2017-03-08T00:54:04.371Z,21.68
2017-03-08T00:55:18.000Z,21.67
2017-03-08T00:56:31.358Z,21.74
2017-03-08T00:57:44.692Z,21.79
2017-03-08T00:58:56.885Z,21.85
2017-03-08T01:00:10.240Z,21.85
2017-03-08T01:01:23.567Z,21.86
2017-03-08T01:02:36.890Z,21.91
2017-03-08T01:03:50.255Z,21.86
2017-03-08T01:05:03.675Z,21.86
2017-03-08T01:06:17.013Z,21.93
2017-03-08T01:07:44.309Z,21.86
2017-03-08T01:08:57.657Z,21.89
2017-03-08T01:10:10.424Z,21.75
2017-03-08T01:11:23.962Z,21.79
2017-03-08T01:12:37.296Z,21.77
2017-03-08T01:14:04.567Z,21.82
2017-03-08T01:15:18.138Z,21.81
2017-03-08T01:16:45.631Z,21.85
2017-03-08T01:17:58.965Z,21.83
2017-03-08T01:19:11.757Z,21.83
2017-03-08T01:20:25.101Z,21.93
2017-03-08T01:21:38.745Z,21.89
2017-03-08T01:22:52.086Z,21.91
2017-03-08T01:24:05.402Z,21.93
2017-03-08T01:25:18.784Z,22.04
2017-03-08T01:26:32.133Z,22.06
2017-03-08T01:27:45.669Z,21.94
2017-03-08T01:28:59.014Z,21.98
2017-03-08T01:30:11.255Z,22.06
2017-03-08T01:31:24.785Z,22.02
2017-03-08T01:32:38.119Z,21.96
2017-03-08T01:33:51.475Z,22.01
2017-03-08T01:35:18.232Z,22.06
2017-03-08T01:36:31.573Z,22.04
2017-03-08T01:37:44.904Z,21.91
2017-03-08T01:38:58.237Z,21.93
2017-03-08T01:40:11.564Z,21.9
2017-03-08T01:41:24.920Z,21.89
2017-03-08T01:42:38.229Z,21.89
2017-03-08T01:43:51.572Z,21.91
2017-03-08T01:45:04.888Z,21.94
2017-03-08T01:47:45.161Z,21.89
2017-03-08T01:48:57.966Z,21.99
2017-03-08T01:50:11.335Z,21.93
2017-03-08T01:52:50.570Z,21.98
2017-03-08T01:54:03.894Z,21.91
2017-03-08T01:55:17.224Z,21.98
2017-03-08T01:56:30.007Z,22.01
2017-03-08T01:57:43.346Z,22.02
2017-03-08T01:58:56.882Z,21.94
2017-03-08T02:00:24.393Z,22.05
2017-03-08T02:01:37.726Z,22.05
2017-03-08T02:02:51.282Z,21.99
2017-03-08T02:04:04.623Z,21.94
2017-03-08T02:05:17.966Z,22.02
2017-03-08T02:06:31.695Z,22.08
2017-03-08T02:07:45.025Z,22.02
2017-03-08T02:09:12.522Z,21.98
2017-03-08T02:10:25.295Z,22.02
2017-03-08T02:11:38.643Z,21.98
2017-03-08T02:12:51.973Z,22.02
2017-03-08T02:14:05.536Z,22.05
2017-03-08T02:15:18.866Z,22.01
2017-03-08T02:16:31.634Z,22.06
2017-03-08T02:17:44.441Z,22.06
2017-03-08T02:18:57.786Z,22.01
2017-03-08T02:20:11.145Z,22.06
2017-03-08T02:21:24.476Z,21.99
2017-03-08T02:22:37.257Z,22.02
2017-03-08T02:23:50.606Z,21.98
2017-03-08T02:26:31.499Z,21.99
2017-03-08T02:27:44.869Z,21.99
2017-03-08T02:28:58.221Z,21.96
2017-03-08T02:31:52.859Z,21.98
2017-03-08T02:33:05.665Z,21.9
2017-03-08T02:34:19.005Z,21.98
2017-03-08T02:35:32.633Z,21.96
2017-03-08T02:36:45.972Z,21.93
2017-03-08T02:37:59.334Z,21.93
2017-03-08T02:39:12.133Z,21.94
2017-03-08T02:40:25.477Z,22.01
2017-03-08T02:41:39.124Z,21.96
2017-03-08T02:42:52.457Z,21.94
2017-03-08T02:44:06.006Z,21.93
2017-03-08T02:45:19.320Z,21.99
2017-03-08T02:46:32.705Z,21.93
2017-03-08T02:47:46.045Z,21.86
2017-03-08T02:48:59.438Z,21.89
2017-03-08T02:50:26.776Z,21.81
2017-03-08T02:51:40.121Z,21.83
2017-03-08T02:52:53.471Z,21.79
2017-03-08T02:54:06.826Z,21.79
2017-03-08T02:55:19.612Z,21.77
2017-03-08T02:56:31.818Z,21.82
2017-03-08T02:57:44.761Z,21.75
2017-03-08T02:58:58.072Z,21.82
2017-03-08T03:00:11.440Z,21.79
2017-03-08T03:01:24.221Z,21.9
2017-03-08T03:02:37.561Z,21.89
2017-03-08T03:03:50.905Z,21.86
2017-03-08T03:05:04.241Z,21.79
2017-03-08T03:06:17.554Z,21.83
2017-03-08T03:07:31.083Z,21.83
2017-03-08T03:08:44.234Z,21.79
2017-03-08T03:09:57.584Z,21.93
2017-03-08T03:11:10.943Z,21.81
2017-03-08T03:12:24.276Z,21.77
2017-03-08T03:13:37.932Z,21.83
2017-03-08T03:14:51.279Z,21.79
2017-03-08T03:16:04.615Z,21.82
2017-03-08T03:17:18.014Z,21.82
2017-03-08T11:11:54.976Z,22.78
2017-03-08T11:13:08.374Z,22.76
2017-03-08T11:14:21.813Z,22.72
2017-03-08T11:15:35.261Z,22.84
2017-03-08T11:16:48.691Z,22.78
2017-03-08T11:18:16.112Z,22.78
2017-03-08T11:19:29.580Z,22.89
2017-03-08T11:20:42.539Z,22.84
2017-03-08T11:21:55.658Z,22.86
2017-03-08T11:23:22.485Z,22.97
2017-03-08T11:26:02.243Z,23.07
2017-03-08T11:27:15.510Z,23.12
2017-03-08T11:28:28.787Z,23.22
2017-03-08T11:29:42.081Z,23.32
2017-03-08T11:30:55.396Z,23.34
2017-03-08T11:32:08.701Z,23.41
2017-03-08T11:33:22.011Z,23.47
2017-03-08T11:34:35.318Z,23.5
2017-03-08T11:35:48.061Z,23.49
2017-03-08T11:37:01.350Z,23.54
2017-03-08T11:38:14.853Z,23.69
2017-03-08T11:39:27.020Z,23.69
2017-03-08T11:40:39.792Z,23.74
2017-03-08T11:41:53.104Z,23.75
2017-03-08T11:43:20.369Z,23.87
2017-03-08T11:44:33.656Z,23.94
2017-03-08T11:45:46.954Z,24.02
2017-03-08T11:47:14.220Z,24.09
2017-03-08T11:48:27.523Z,24.18
2017-03-08T11:49:40.257Z,24.19
2017-03-08T11:50:53.577Z,24.29
2017-03-08T11:52:06.873Z,24.31
2017-03-08T11:53:19.666Z,24.33
2017-03-08T11:54:32.612Z,24.45
2017-03-08T11:55:46.083Z,24.49
2017-03-08T11:56:59.566Z,24.44
2017-03-08T11:58:13.148Z,24.49
2017-03-08T11:59:26.677Z,24.51
2017-03-08T12:00:40.097Z,24.56
2017-03-08T12:02:07.363Z,24.49
2017-03-08T12:03:20.086Z,24.55
2017-03-08T12:04:33.377Z,24.6
2017-03-08T12:05:46.083Z,24.66
2017-03-08T12:08:26.625Z,24.86
2017-03-08T12:09:39.909Z,24.89
2017-03-08T12:12:34.449Z,24.97
2017-03-08T12:13:47.748Z,24.87
2017-03-08T12:15:01.227Z,24.9
2017-03-08T12:16:14.516Z,24.9
2017-03-08T12:17:26.678Z,24.93
2017-03-08T12:18:53.949Z,24.92
2017-03-08T12:20:07.236Z,24.92
2017-03-08T12:21:20.524Z,24.97
2017-03-08T12:22:33.852Z,24.98
2017-03-08T12:23:47.140Z,24.99
2017-03-08T12:24:59.885Z,25.14
2017-03-08T12:26:13.387Z,25.24
2017-03-08T12:27:26.720Z,25.38
2017-03-08T12:28:40.001Z,25.38
2017-03-08T12:29:52.722Z,25.41
2017-03-08T12:31:20.298Z,25.56
2017-03-08T12:32:33.075Z,25.66
2017-03-08T12:33:46.382Z,25.64
2017-03-08T12:34:59.118Z,25.79
2017-03-08T12:36:12.602Z,25.81
2017-03-08T12:37:25.319Z,25.83
2017-03-08T12:38:38.610Z,25.72
2017-03-08T12:39:51.987Z,25.64
2017-03-08T12:41:05.279Z,25.78
2017-03-08T12:42:18.588Z,25.75
2017-03-08T12:43:45.275Z,25.76
2017-03-08T12:44:58.566Z,25.78
2017-03-08T12:46:12.047Z,25.66
2017-03-08T12:47:25.330Z,25.64
2017-03-08T12:48:38.617Z,25.79
2017-03-08T12:49:51.368Z,25.9
2017-03-08T12:51:04.646Z,25.98
2017-03-08T12:52:18.129Z,25.91
2017-03-08T12:53:31.415Z,25.91
2017-03-08T12:54:44.133Z,25.86
2017-03-08T12:56:11.597Z,26.08
2017-03-08T12:57:24.879Z,26.23
2017-03-08T12:58:37.588Z,26.42
2017-03-08T12:59:50.886Z,26.83
2017-03-08T13:01:03.586Z,27.01
2017-03-08T13:02:16.863Z,27.16
2017-03-08T13:03:29.017Z,27.28
2017-03-08T13:04:41.742Z,27.45
2017-03-08T13:05:55.027Z,27.61
2017-03-08T13:07:08.306Z,27.68
2017-03-08T13:08:21.008Z,27.87
2017-03-08T13:09:33.724Z,28.06
2017-03-08T13:10:46.431Z,28.09
2017-03-08T13:11:59.722Z,28.23
2017-03-08T13:13:13.201Z,28.28
2017-03-08T13:14:25.931Z,28.3
2017-03-08T13:15:39.223Z,28.27
2017-03-08T13:16:52.517Z,28.33
2017-03-08T13:18:05.788Z,28.28
2017-03-08T13:19:19.072Z,28.3
2017-03-08T13:20:45.768Z,27.87
2017-03-08T13:22:13.028Z,27.86
2017-03-08T13:23:26.329Z,27.63
2017-03-08T13:24:39.608Z,27.65
2017-03-08T13:26:06.315Z,27.66
2017-03-08T13:27:19.590Z,27.61
2017-03-08T13:28:32.885Z,27.88
2017-03-08T13:29:45.605Z,27.69
2017-03-08T13:30:58.314Z,27.45
2017-03-08T13:32:11.604Z,27.27
2017-03-08T13:33:24.346Z,27.38
2017-03-08T13:34:37.822Z,27.52
2017-03-08T13:35:51.121Z,27.63
2017-03-08T13:37:04.401Z,27.8
2017-03-08T13:38:31.714Z,27.84
2017-03-08T13:39:44.426Z,27.93
2017-03-08T13:40:57.705Z,28.15
2017-03-08T13:42:10.975Z,28.33
2017-03-08T13:43:24.263Z,28.42
2017-03-08T13:44:36.993Z,28.51
2017-03-08T13:45:50.265Z,28.61
2017-03-08T13:47:03.534Z,28.43
2017-03-08T13:48:16.272Z,28.36
2017-03-08T13:49:29.557Z,28.45
2017-03-08T13:50:42.855Z,28.5
2017-03-08T13:51:56.140Z,28.54
2017-03-08T13:53:23.406Z,28.57
2017-03-08T13:54:36.125Z,28.69
2017-03-08T13:55:49.418Z,28.77
2017-03-08T13:57:16.672Z,28.74
2017-03-08T13:58:29.405Z,28.8
2017-03-08T13:59:41.550Z,28.82
2017-03-08T14:00:53.716Z,28.83
2017-03-08T14:02:06.999Z,28.82
2017-03-08T14:03:19.152Z,28.88
2017-03-08T14:04:31.871Z,28.79
2017-03-08T14:05:45.167Z,28.82
2017-03-08T14:06:58.447Z,28.79
2017-03-08T14:09:38.446Z,28.42
2017-03-08T14:10:51.154Z,28.32
2017-03-08T14:12:04.454Z,28.38
2017-03-08T14:13:31.720Z,28.33
2017-03-08T14:14:44.425Z,28.3
2017-03-08T14:15:55.999Z,28.25
2017-03-08T14:17:09.281Z,28.23
2017-03-08T14:18:22.561Z,27.96
2017-03-08T14:19:35.883Z,27.86
2017-03-08T14:20:48.620Z,27.72
2017-03-08T14:22:01.890Z,27.8
2017-03-08T14:23:15.219Z,27.9
2017-03-08T14:24:28.524Z,28.05
2017-03-08T14:25:55.227Z,28.28
2017-03-08T14:27:08.508Z,28.35
2017-03-08T14:28:35.795Z,28.32
2017-03-08T14:29:48.520Z,28.54
2017-03-08T14:31:01.812Z,28.65
2017-03-08T14:32:15.097Z,28.7
2017-03-08T14:33:28.823Z,28.73
2017-03-08T14:34:46.071Z,28.62
2017-03-08T14:36:00.827Z,28.72
2017-03-08T14:37:17.463Z,28.73
2017-03-08T14:38:33.320Z,28.8
2017-03-08T14:40:02.770Z,28.79
2017-03-08T14:41:24.621Z,28.83
2017-03-08T14:42:38.760Z,28.77
2017-03-08T14:43:55.591Z,28.6
2017-03-08T14:45:13.331Z,28.61
2017-03-08T14:46:42.983Z,28.62
2017-03-08T14:47:59.625Z,28.6
2017-03-08T14:49:16.235Z,28.57
2017-03-08T14:50:32.643Z,28.58
2017-03-08T14:51:48.382Z,28.55
2017-03-08T14:53:01.652Z,28.35
2017-03-08T14:54:14.943Z,28.38
2017-03-08T14:55:42.195Z,28.2
2017-03-08T14:57:23.439Z,28.25
2017-03-08T14:58:36.729Z,28.24
2017-03-08T14:59:49.453Z,28.25
2017-03-08T15:01:02.750Z,28.38
2017-03-08T15:02:16.032Z,28.35
2017-03-08T15:03:29.320Z,28.43
2017-03-08T15:04:42.616Z,28.36
2017-03-08T15:05:55.905Z,28.5
2017-03-08T15:07:22.930Z,28.69
2017-03-08T15:08:36.213Z,28.69
2017-03-08T15:10:03.482Z,28.3
2017-03-08T15:11:30.194Z,28.27
2017-03-08T15:12:43.203Z,28.3
2017-03-08T15:13:55.915Z,28.27
2017-03-08T15:15:09.219Z,28.35
2017-03-08T15:16:36.476Z,28.27
2017-03-08T15:17:49.746Z,28.24
2017-03-08T15:19:03.062Z,28.15
2017-03-08T15:20:16.348Z,28.32
2017-03-08T15:21:29.637Z,28.32
2017-03-08T15:22:42.926Z,28.3
2017-03-08T15:23:56.212Z,28.33
2017-03-08T15:25:09.526Z,28.32
2017-03-08T15:26:22.815Z,28.28
2017-03-08T15:27:35.534Z,28.06
2017-03-08T15:28:49.111Z,27.87
2017-03-08T15:30:02.445Z,28.02
2017-03-08T15:31:15.169Z,28.01
2017-03-08T15:32:28.479Z,28.06
2017-03-08T15:33:41.785Z,28.25
2017-03-08T15:34:54.516Z,28.28
2017-03-08T15:36:07.806Z,28.45
2017-03-08T15:37:20.537Z,28.58
2017-03-08T15:38:33.835Z,28.73
2017-03-08T15:39:47.429Z,28.7
2017-03-08T15:41:00.701Z,28.85
2017-03-08T15:42:27.409Z,28.8
2017-03-08T15:43:40.126Z,28.95
2017-03-08T15:44:53.735Z,29
2017-03-08T15:46:07.080Z,28.95
2017-03-08T15:47:20.381Z,29.02
2017-03-08T15:48:33.686Z,29.12
2017-03-08T15:49:47.006Z,29.12
2017-03-08T15:50:59.170Z,28.91
2017-03-08T15:52:12.443Z,28.91
2017-03-08T15:53:25.741Z,28.95
2017-03-08T15:54:53.016Z,29
2017-03-08T15:56:06.306Z,29.03
2017-03-08T15:57:33.582Z,29.11
2017-03-08T15:58:46.315Z,29.02
2017-03-08T16:00:13.582Z,29
2017-03-08T16:01:26.897Z,29.02
2017-03-08T16:02:40.209Z,29.08
2017-03-08T16:04:07.487Z,29.08
2017-03-08T16:05:19.654Z,29.17
2017-03-08T16:06:33.001Z,29.25
2017-03-08T16:07:46.327Z,29.21
2017-03-08T16:08:59.619Z,29.29
2017-03-08T16:10:12.339Z,29.35
2017-03-08T16:11:25.942Z,29.42
2017-03-08T16:12:39.258Z,29.42
2017-03-08T16:13:52.551Z,29.42
2017-03-08T16:15:05.851Z,29.37
2017-03-08T16:16:19.468Z,29
2017-03-08T16:17:32.769Z,28.88
2017-03-08T16:18:46.061Z,28.97
2017-03-08T16:19:59.404Z,28.97
2017-03-08T16:21:12.730Z,28.94
2017-03-08T16:22:40.006Z,29.05
2017-03-08T16:23:53.294Z,29.11
2017-03-08T16:25:06.605Z,29.12
2017-03-08T16:26:19.574Z,29.17
2017-03-08T16:27:32.895Z,29.21
2017-03-08T16:28:45.638Z,29.18
2017-03-08T16:29:58.958Z,29.3
2017-03-08T16:31:12.291Z,29.26
2017-03-08T16:32:25.604Z,29.26
2017-03-08T16:33:52.880Z,29.42
2017-03-08T16:35:06.242Z,29.36
2017-03-08T16:36:18.984Z,29.37
2017-03-08T16:37:32.299Z,29.26
2017-03-08T16:38:45.604Z,29.14
2017-03-08T16:39:58.922Z,29.07
2017-03-08T16:41:12.247Z,29.12
2017-03-08T16:42:25.557Z,29.17
2017-03-08T16:43:38.311Z,29.21
2017-03-08T16:44:51.633Z,29.2
2017-03-08T16:46:18.915Z,29.07
2017-03-08T16:47:32.267Z,29.07
2017-03-08T16:48:44.996Z,28.94
2017-03-08T16:49:58.518Z,29.05
2017-03-08T16:51:11.846Z,29.07
2017-03-08T16:52:25.174Z,29.21
2017-03-08T16:53:38.186Z,29.21
2017-03-08T16:54:51.498Z,29.26
2017-03-08T16:56:18.785Z,29.03
2017-03-08T16:58:59.099Z,28.77
2017-03-08T17:00:12.433Z,28.77
2017-03-08T17:01:25.771Z,28.73
2017-03-08T17:02:39.399Z,28.89
2017-03-08T17:03:52.732Z,28.8
2017-03-08T17:05:06.058Z,28.67
2017-03-08T17:06:19.409Z,28.65
2017-03-08T17:07:32.743Z,28.58
2017-03-08T17:08:46.073Z,28.64
2017-03-08T17:10:13.350Z,28.38
2017-03-08T17:11:40.062Z,28.5
2017-03-08T17:12:52.305Z,28.43
2017-03-08T17:14:19.704Z,28.35
2017-03-08T17:15:33.033Z,28.35
2017-03-08T17:17:01.788Z,28.4
2017-03-08T17:18:29.543Z,28.4
2017-03-08T17:19:42.879Z,28.24
2017-03-08T17:20:55.613Z,28.25
2017-03-08T17:22:08.940Z,28.13
2017-03-08T17:23:22.273Z,28.08
2017-03-08T17:24:35.833Z,28.02
2017-03-08T17:25:49.207Z,27.96
2017-03-08T17:27:02.547Z,27.93
2017-03-08T17:28:15.879Z,27.88
2017-03-08T17:29:29.285Z,27.78
2017-03-08T17:30:42.601Z,27.74
2017-03-08T17:32:10.097Z,27.61
2017-03-08T17:33:23.391Z,27.71
2017-03-08T17:34:36.715Z,27.69
2017-03-08T17:35:49.489Z,27.61
2017-03-08T17:37:03.011Z,27.43
2017-03-08T17:38:16.349Z,27.49
2017-03-08T17:39:29.657Z,27.59
2017-03-08T17:40:42.995Z,27.58
2017-03-08T17:41:55.741Z,27.62
2017-03-08T17:43:09.073Z,27.72
2017-03-08T17:44:21.831Z,27.83
2017-03-08T17:45:34.812Z,27.77
2017-03-08T17:46:48.553Z,27.71
2017-03-08T17:48:01.878Z,27.72
2017-03-08T17:49:15.218Z,27.59
2017-03-08T17:50:28.551Z,27.65
2017-03-08T17:51:41.306Z,27.65
2017-03-08T17:52:54.640Z,27.72
2017-03-08T17:54:21.920Z,27.59
2017-03-08T17:55:34.967Z,27.59
2017-03-08T17:56:48.277Z,27.52
2017-03-08T17:58:02.238Z,27.59
2017-03-08T17:59:15.556Z,27.49
2017-03-08T18:00:28.881Z,27.45
2017-03-08T18:01:42.204Z,27.42
2017-03-08T18:02:55.556Z,27.39
2017-03-08T18:04:08.880Z,27.4
2017-03-08T18:05:21.651Z,27.43
2017-03-08T18:08:15.898Z,27.53
2017-03-08T18:09:28.672Z,27.62
2017-03-08T18:10:42.033Z,27.59
2017-03-08T18:11:55.633Z,27.55
2017-03-08T18:13:09.001Z,27.53
2017-03-08T18:14:21.752Z,27.58
2017-03-08T18:15:35.074Z,27.66
2017-03-08T18:16:47.844Z,27.65
2017-03-08T18:18:14.556Z,27.55
2017-03-08T18:19:28.094Z,27.39
2017-03-08T18:20:41.418Z,27.46
2017-03-08T18:21:54.733Z,27.43
2017-03-08T18:23:08.068Z,27.48
2017-03-08T18:24:21.393Z,27.46
2017-03-08T18:25:34.701Z,27.48
2017-03-08T18:27:01.999Z,27.46
2017-03-08T18:28:15.342Z,27.35
2017-03-08T18:29:28.686Z,27.39
2017-03-08T18:30:42.065Z,27.27
2017-03-08T18:31:55.478Z,27.35
2017-03-08T18:33:09.136Z,27.31
2017-03-08T18:34:21.919Z,27.31
2017-03-08T18:35:34.192Z,27.3
2017-03-08T18:36:46.947Z,27.28
2017-03-08T18:38:00.574Z,27.15
2017-03-08T18:39:13.921Z,27.15
2017-03-08T18:40:27.252Z,27.18
2017-03-08T18:41:39.998Z,27.13
2017-03-08T18:42:52.766Z,27.25
2017-03-08T18:44:06.090Z,27.23
2017-03-08T18:45:18.816Z,27.23
2017-03-08T18:46:32.160Z,27.23
2017-03-08T18:47:45.484Z,27.23
2017-03-08T18:49:12.768Z,27.28
2017-03-08T18:50:25.491Z,27.21
2017-03-08T18:51:38.805Z,27.23
2017-03-08T18:52:52.107Z,27.13
2017-03-08T18:54:05.585Z,27.05
2017-03-08T18:55:19.030Z,27.13
2017-03-08T18:56:32.334Z,27.12
2017-03-08T18:57:45.652Z,27.11
2017-03-08T19:00:25.686Z,27.02
2017-03-08T19:01:39.000Z,26.9
2017-03-08T19:02:52.313Z,26.93
2017-03-08T19:04:05.630Z,26.72
2017-03-08T19:05:18.936Z,26.66
2017-03-08T19:06:32.284Z,26.64
2017-03-08T19:07:45.607Z,26.69
2017-03-08T19:08:58.340Z,26.64
2017-03-08T19:10:25.640Z,26.54
2017-03-08T19:11:39.025Z,26.66
2017-03-08T19:12:52.343Z,26.61
2017-03-08T19:14:04.537Z,26.57
2017-03-08T19:15:17.842Z,26.53
2017-03-08T19:16:30.025Z,26.53
2017-03-08T19:17:42.784Z,26.51
2017-03-08T19:18:56.112Z,26.38
2017-03-08T19:20:09.431Z,26.46
2017-03-08T19:21:22.765Z,26.38
2017-03-08T19:22:34.947Z,26.31
2017-03-08T19:23:48.279Z,26.24
2017-03-08T19:25:01.598Z,26.23
2017-03-08T19:26:14.926Z,26.19
2017-03-08T19:27:42.252Z,26.08
2017-03-08T19:28:55.169Z,26.08
2017-03-08T19:30:07.511Z,26.08
2017-03-08T19:31:21.020Z,26.09
2017-03-08T19:32:34.495Z,26.03
2017-03-08T19:33:47.982Z,25.89
2017-03-08T19:35:00.913Z,25.94
2017-03-08T19:36:14.436Z,26.01
2017-03-08T19:37:28.140Z,26
2017-03-08T19:38:41.623Z,26.04
2017-03-08T19:39:55.099Z,25.97
2017-03-08T19:41:08.593Z,25.96
2017-03-08T19:42:22.089Z,25.91
2017-03-08T19:43:48.929Z,25.89
2017-03-08T19:45:02.423Z,25.81
2017-03-08T19:46:15.945Z,25.79
2017-03-08T19:47:29.467Z,25.79
2017-03-08T19:48:42.962Z,25.69
2017-03-08T19:49:56.462Z,25.63
2017-03-08T19:51:09.374Z,25.49
2017-03-08T19:52:22.896Z,25.46
2017-03-08T19:53:36.387Z,25.46
2017-03-08T19:55:04.014Z,25.44
2017-03-08T19:56:17.491Z,25.48
2017-03-08T19:57:29.817Z,25.44
2017-03-08T19:58:42.908Z,25.45
2017-03-08T20:00:24.257Z,25.38
2017-03-08T20:01:37.765Z,25.35
2017-03-08T20:02:51.240Z,25.12
2017-03-08T20:04:04.739Z,25.16
2017-03-08T20:05:18.232Z,25.09
2017-03-08T20:06:31.696Z,25.16
2017-03-08T20:07:45.180Z,25.11
2017-03-08T20:08:58.091Z,25.11
2017-03-08T20:10:11.276Z,25.09
2017-03-08T20:11:24.775Z,25.01
2017-03-08T20:12:38.236Z,25.01
2017-03-08T20:13:51.153Z,24.97
2017-03-08T20:15:18.564Z,24.87
2017-03-08T20:16:32.038Z,24.99
2017-03-08T20:17:45.511Z,24.9
2017-03-08T20:18:58.988Z,24.9
2017-03-08T20:20:11.895Z,24.87
2017-03-08T20:21:39.323Z,24.89
2017-03-08T20:23:06.730Z,24.68
2017-03-08T20:24:34.153Z,24.74
2017-03-08T20:25:47.881Z,24.83
2017-03-08T20:27:00.691Z,24.71
2017-03-08T20:28:27.389Z,24.64
2017-03-08T20:29:40.096Z,24.71
2017-03-08T20:30:52.821Z,24.64
2017-03-08T20:32:05.560Z,24.67
2017-03-08T20:33:18.365Z,24.71
2017-03-08T20:34:30.510Z,24.63
2017-03-08T20:35:42.142Z,24.64
2017-03-08T20:36:54.881Z,24.66
2017-03-08T20:38:07.105Z,24.66
2017-03-08T20:39:20.393Z,24.71
2017-03-08T20:40:47.706Z,24.6
2017-03-08T20:42:00.733Z,24.56
2017-03-08T20:43:14.052Z,24.64
2017-03-08T20:44:27.339Z,24.66
2017-03-08T20:45:40.648Z,24.59
2017-03-08T20:46:54.138Z,24.52
2017-03-08T20:48:07.496Z,24.63
2017-03-08T20:49:34.778Z,24.63
2017-03-08T20:50:48.078Z,24.63
2017-03-08T20:52:01.673Z,24.56
2017-03-08T20:53:28.391Z,24.63
2017-03-08T20:54:41.119Z,24.44
2017-03-08T20:56:08.379Z,24.36
2017-03-08T20:57:21.954Z,24.37
2017-03-08T20:58:35.230Z,24.36
2017-03-08T20:59:48.532Z,24.36
2017-03-08T21:01:01.825Z,24.39
2017-03-08T21:02:15.097Z,24.36
2017-03-08T21:03:27.824Z,24.33
2017-03-08T21:04:41.099Z,24.34
2017-03-08T21:05:54.382Z,24.26
2017-03-08T21:07:07.659Z,24.23
2017-03-08T21:08:20.986Z,24.34
2017-03-08T21:09:34.266Z,24.37
2017-03-08T21:10:46.979Z,24.33
2017-03-08T21:12:00.264Z,24.3
2017-03-08T21:14:40.827Z,24.21
2017-03-08T21:15:54.115Z,24.26
2017-03-08T21:18:34.838Z,24.18
2017-03-08T21:19:47.542Z,24.09
2017-03-08T21:21:00.824Z,24.11
2017-03-08T21:22:14.114Z,24.14
2017-03-08T21:23:26.270Z,24.11
2017-03-08T21:24:39.540Z,24.08
2017-03-08T21:25:52.255Z,24.12
2017-03-08T21:27:05.541Z,24.08
2017-03-08T21:28:18.260Z,24.12
2017-03-08T21:29:30.995Z,24.09
2017-03-08T21:30:43.709Z,24.11
2017-03-08T21:31:57.009Z,24.14
2017-03-08T21:33:23.707Z,24.18
2017-03-08T21:34:37.022Z,24.18
2017-03-08T21:35:50.328Z,24.16
2017-03-08T21:37:03.615Z,24.12
2017-03-08T21:39:44.390Z,24.19
2017-03-08T21:40:57.686Z,24.21
2017-03-08T21:42:10.396Z,24.3
2017-03-08T21:43:23.124Z,24.19
2017-03-08T21:44:36.446Z,24.21
2017-03-08T21:45:49.944Z,24.15
2017-03-08T21:47:03.223Z,24.24
2017-03-08T21:48:16.509Z,24.15
2017-03-08T21:49:29.840Z,24.19
2017-03-08T21:50:43.136Z,24.21
2017-03-08T21:51:56.405Z,24.3
2017-03-08T21:53:08.013Z,24.18
2017-03-08T21:54:21.300Z,24.19
2017-03-08T21:55:34.571Z,24.15
2017-03-08T21:56:48.170Z,24.15
2017-03-08T21:58:00.883Z,24.23
2017-03-08T21:59:13.089Z,24.18
2017-03-08T22:00:26.415Z,24.18
2017-03-08T22:01:39.892Z,24.23
2017-03-08T22:02:53.193Z,24.21
2017-03-08T22:04:06.494Z,24.16
2017-03-08T22:05:19.222Z,24.18
2017-03-08T22:06:32.496Z,24.11
2017-03-08T22:07:46.001Z,24.14
2017-03-08T22:08:59.286Z,24.11
2017-03-08T22:10:12.022Z,24.12
2017-03-08T22:11:25.313Z,24.15
2017-03-08T22:12:38.834Z,24.05
2017-03-08T22:13:52.121Z,24.02
2017-03-08T22:15:04.852Z,23.96
2017-03-08T22:16:17.606Z,24.04
2017-03-08T22:17:30.904Z,24.04
2017-03-08T22:18:44.412Z,24.05
2017-03-08T22:19:57.708Z,24.05
2017-03-08T22:21:09.879Z,23.99
2017-03-08T22:22:22.603Z,24
2017-03-08T22:23:36.103Z,24.08
2017-03-08T22:25:03.377Z,24.06
2017-03-08T22:26:16.099Z,24.04
2017-03-08T22:27:43.355Z,24.05
2017-03-08T22:28:56.654Z,24.02
2017-03-08T22:30:23.353Z,24.02
2017-03-08T22:31:36.119Z,24.05
2017-03-08T22:32:48.865Z,23.99
2017-03-08T22:34:02.150Z,24.02
2017-03-08T22:35:15.462Z,23.96
2017-03-08T22:36:42.727Z,23.99
2017-03-08T22:37:56.069Z,24
2017-03-08T22:39:08.803Z,24.04
2017-03-08T22:40:36.077Z,24.16
2017-03-08T22:41:49.586Z,24.14
2017-03-08T22:43:02.319Z,24.05
2017-03-08T22:44:29.815Z,24.23
2017-03-08T22:45:43.138Z,24.23
2017-03-08T22:46:56.434Z,24.18
2017-03-08T22:48:23.705Z,24.18
2017-03-08T22:49:36.991Z,24.26
2017-03-08T22:51:03.727Z,24.24
2017-03-08T22:52:17.082Z,24.3
2017-03-08T22:53:30.419Z,24.24
2017-03-08T22:54:57.709Z,24.23
2017-03-08T22:56:11.053Z,24.3
2017-03-08T22:57:37.205Z,24.16
2017-03-08T22:58:50.527Z,24.24
2017-03-08T23:00:03.862Z,24.19
2017-03-08T23:01:16.045Z,24.27
2017-03-08T23:02:29.353Z,24.21
2017-03-08T23:03:42.097Z,24.24
2017-03-08T23:04:55.424Z,24.19
2017-03-08T23:06:08.387Z,24.29
2017-03-08T23:07:35.661Z,24.23
2017-03-08T23:08:48.404Z,24.3
2017-03-08T23:10:01.922Z,24.24
2017-03-08T23:11:14.666Z,24.19
2017-03-08T23:12:42.165Z,24.19
2017-03-08T23:13:54.925Z,24.34
2017-03-08T23:15:07.671Z,24.23
2017-03-08T23:16:34.979Z,24.23
2017-03-08T23:17:48.292Z,24.27
2017-03-08T23:19:01.644Z,24.23
2017-03-08T23:20:15.009Z,24.27
2017-03-08T23:21:28.352Z,24.3
2017-03-08T23:22:41.676Z,24.3
2017-03-08T23:23:55.004Z,24.29
2017-03-08T23:25:22.318Z,24.27
2017-03-08T23:26:35.897Z,24.26
2017-03-08T23:27:48.919Z,24.29
2017-03-08T23:29:02.074Z,24.23
2017-03-08T23:30:14.934Z,24.18
2017-03-08T23:31:28.535Z,24.18
2017-03-08T23:32:41.841Z,24.18
2017-03-08T23:33:55.162Z,24.23
2017-03-08T23:35:08.469Z,24.19
2017-03-08T23:36:21.783Z,24.16
2017-03-08T23:37:35.398Z,24.15
2017-03-08T23:38:48.700Z,24.11
2017-03-08T23:40:02.007Z,24.11
2017-03-08T23:41:15.318Z,24.14
2017-03-08T23:42:28.061Z,24.15
2017-03-08T23:43:40.792Z,24.23
2017-03-08T23:44:54.142Z,24.26
2017-03-08T23:46:08.033Z,24.16
2017-03-08T23:47:21.339Z,24.15
2017-03-08T23:48:34.069Z,24.3
2017-03-08T23:49:47.410Z,24.18
2017-03-08T23:51:00.717Z,24.14
2017-03-08T23:52:14.040Z,24.15
2017-03-08T23:53:26.778Z,24.19
2017-03-08T23:54:40.101Z,24.23
2017-03-08T23:55:53.410Z,24.26
2017-03-08T23:57:06.792Z,24.18
2017-03-08T23:58:20.102Z,24.23
2017-03-08T23:59:47.391Z,24.29
